createdAt,value
2017-12-22T00:00:13.378Z,109.00
2017-12-22T00:00:48.759Z,99.60
2017-12-22T00:01:24.277Z,96.20
2017-12-22T00:01:59.786Z,108.40
2017-12-22T00:02:35.268Z,97.50
2017-12-22T00:03:10.773Z,101.30
2017-12-22T00:03:46.194Z,97.80
2017-12-22T00:04:21.318Z,99.90
2017-12-22T00:04:56.817Z,100.50
2017-12-22T00:05:32.133Z,101.50
2017-12-22T00:06:07.605Z,103.20
2017-12-22T00:06:42.905Z,100.20
2017-12-22T00:07:18.521Z,97.80
2017-12-22T00:07:53.598Z,97.10
2017-12-22T00:08:28.803Z,96.20
2017-12-22T00:09:04.028Z,104.60
2017-12-22T00:09:39.438Z,106.20
2017-12-22T00:10:15.106Z,108.40
2017-12-22T00:10:50.828Z,105.20
2017-12-22T00:11:26.128Z,100.40
2017-12-22T00:12:01.534Z,98.60
2017-12-22T00:12:36.546Z,107.70
2017-12-22T00:13:11.919Z,102.30
2017-12-22T00:13:47.338Z,101.90
2017-12-22T00:14:22.746Z,103.40
2017-12-22T00:14:58.462Z,107.70
2017-12-22T00:15:33.643Z,109.70
2017-12-22T00:16:08.657Z,101.70
2017-12-22T00:16:43.936Z,85.90
2017-12-22T00:17:19.336Z,89.10
2017-12-22T00:17:54.522Z,91.50
2017-12-22T00:18:30.118Z,93.20
2017-12-22T00:19:05.643Z,99.00
2017-12-22T00:19:41.144Z,97.50
2017-12-22T00:20:16.874Z,90.60
2017-12-22T00:20:52.161Z,86.30
2017-12-22T00:21:27.573Z,83.60
2017-12-22T00:22:02.850Z,86.50
2017-12-22T00:22:38.455Z,85.70
2017-12-22T00:23:13.840Z,85.30
2017-12-22T00:23:49.340Z,94.00
2017-12-22T00:24:24.744Z,93.00
2017-12-22T00:24:59.868Z,74.40
2017-12-22T00:25:35.075Z,82.20
2017-12-22T00:26:10.455Z,78.80
2017-12-22T00:26:45.960Z,79.10
2017-12-22T00:27:21.346Z,84.50
2017-12-22T00:27:56.655Z,78.40
2017-12-22T00:28:31.935Z,80.70
2017-12-22T00:29:07.343Z,79.10
2017-12-22T00:29:42.760Z,83.20
2017-12-22T00:30:18.180Z,91.20
2017-12-22T00:30:53.788Z,82.00
2017-12-22T00:31:29.166Z,89.50
2017-12-22T00:32:04.469Z,88.60
2017-12-22T00:32:40.060Z,82.10
2017-12-22T00:33:15.461Z,86.40
2017-12-22T00:33:50.735Z,83.30
2017-12-22T00:34:26.347Z,81.00
2017-12-22T00:35:01.457Z,80.90
2017-12-22T00:35:37.050Z,78.60
2017-12-22T00:36:12.660Z,83.90
2017-12-22T00:36:48.139Z,82.60
2017-12-22T00:37:23.344Z,82.50
2017-12-22T00:37:58.915Z,84.90
2017-12-22T00:38:34.137Z,88.30
2017-12-22T00:39:09.410Z,80.70
2017-12-22T00:39:44.812Z,86.80
2017-12-22T00:40:20.087Z,85.00
2017-12-22T00:40:55.430Z,85.10
2017-12-22T00:41:30.938Z,86.40
2017-12-22T00:42:06.621Z,79.90
2017-12-22T00:42:41.820Z,80.60
2017-12-22T00:43:17.442Z,89.00
2017-12-22T00:43:52.950Z,84.80
2017-12-22T00:44:28.229Z,89.50
2017-12-22T00:45:03.695Z,95.50
2017-12-22T00:45:39.060Z,94.60
2017-12-22T00:46:14.398Z,94.80
2017-12-22T00:46:49.915Z,87.10
2017-12-22T00:47:25.282Z,77.20
2017-12-22T00:48:00.680Z,86.40
2017-12-22T00:48:35.956Z,89.30
2017-12-22T00:49:11.372Z,82.10
2017-12-22T00:49:46.947Z,89.00
2017-12-22T00:50:22.052Z,89.60
2017-12-22T00:50:57.830Z,85.30
2017-12-22T00:51:33.262Z,93.30
2017-12-22T00:52:08.589Z,93.60
2017-12-22T00:52:43.848Z,94.20
2017-12-22T00:53:19.265Z,91.50
2017-12-22T00:53:54.346Z,88.60
2017-12-22T00:54:29.489Z,89.90
2017-12-22T00:55:04.867Z,93.30
2017-12-22T00:55:40.361Z,91.70
2017-12-22T00:56:15.846Z,97.50
2017-12-22T00:56:51.073Z,84.70
2017-12-22T00:57:26.193Z,78.40
2017-12-22T00:58:01.387Z,87.60
2017-12-22T00:58:36.793Z,88.50
2017-12-22T00:59:12.374Z,88.30
2017-12-22T00:59:47.779Z,82.40
2017-12-22T01:00:23.257Z,82.10
2017-12-22T01:00:58.457Z,75.40
2017-12-22T01:01:33.947Z,76.30
2017-12-22T01:02:09.587Z,83.20
2017-12-22T01:02:44.859Z,78.70
2017-12-22T01:03:20.365Z,82.00
2017-12-22T01:03:56.185Z,82.40
2017-12-22T01:04:31.442Z,83.30
2017-12-22T01:05:07.340Z,79.10
2017-12-22T01:05:42.618Z,81.80
2017-12-22T01:06:18.029Z,81.90
2017-12-22T01:06:53.318Z,76.50
2017-12-22T01:07:28.575Z,90.20
2017-12-22T01:08:04.066Z,94.90
2017-12-22T01:08:39.473Z,90.80
2017-12-22T01:09:14.876Z,78.40
2017-12-22T01:09:49.962Z,84.60
2017-12-22T01:10:25.362Z,88.30
2017-12-22T01:11:00.937Z,84.50
2017-12-22T01:11:36.450Z,94.40
2017-12-22T01:12:11.626Z,86.80
2017-12-22T01:12:46.953Z,91.60
2017-12-22T01:13:22.136Z,86.30
2017-12-22T01:13:57.240Z,79.30
2017-12-22T01:14:32.949Z,81.00
2017-12-22T01:15:08.443Z,83.50
2017-12-22T01:15:43.949Z,86.10
2017-12-22T01:16:19.528Z,84.80
2017-12-22T01:16:54.729Z,75.10
2017-12-22T01:17:29.956Z,79.20
2017-12-22T01:18:05.543Z,78.00
2017-12-22T01:18:40.919Z,72.80
2017-12-22T01:19:16.225Z,83.40
2017-12-22T01:19:51.631Z,92.30
2017-12-22T01:20:26.983Z,82.30
2017-12-22T01:21:02.396Z,73.40
2017-12-22T01:21:37.677Z,75.90
2017-12-22T01:22:12.879Z,80.60
2017-12-22T01:22:47.959Z,87.10
2017-12-22T01:23:23.796Z,80.10
2017-12-22T01:23:59.486Z,76.10
2017-12-22T01:24:34.995Z,74.80
2017-12-22T01:25:10.274Z,72.40
2017-12-22T01:25:45.686Z,87.90
2017-12-22T01:26:21.093Z,88.50
2017-12-22T01:26:56.462Z,75.60
2017-12-22T01:27:31.971Z,80.00
2017-12-22T01:28:07.458Z,84.50
2017-12-22T01:28:42.785Z,76.70
2017-12-22T01:29:18.536Z,78.20
2017-12-22T01:29:53.847Z,79.40
2017-12-22T01:30:29.026Z,85.80
2017-12-22T01:31:04.234Z,87.90
2017-12-22T01:31:39.842Z,78.60
2017-12-22T01:32:15.117Z,79.80
2017-12-22T01:32:50.415Z,81.70
2017-12-22T01:33:25.700Z,83.90
2017-12-22T01:34:01.240Z,81.00
2017-12-22T01:34:36.723Z,78.40
2017-12-22T01:35:12.128Z,79.50
2017-12-22T01:35:47.505Z,78.10
2017-12-22T01:36:22.906Z,83.30
2017-12-22T01:36:58.113Z,84.70
2017-12-22T01:37:33.494Z,77.20
2017-12-22T01:38:08.796Z,82.00
2017-12-22T01:38:44.381Z,80.30
2017-12-22T01:39:20.022Z,83.40
2017-12-22T01:39:55.304Z,88.40
2017-12-22T01:40:30.603Z,87.70
2017-12-22T01:41:06.175Z,80.50
2017-12-22T01:41:41.283Z,81.10
2017-12-22T01:42:16.798Z,88.20
2017-12-22T01:42:52.252Z,85.30
2017-12-22T01:43:27.493Z,85.50
2017-12-22T01:44:03.066Z,85.60
2017-12-22T01:44:38.601Z,91.00
2017-12-22T01:45:13.876Z,88.10
2017-12-22T01:45:49.179Z,89.20
2017-12-22T01:46:24.646Z,88.90
2017-12-22T01:46:59.845Z,85.10
2017-12-22T01:47:35.328Z,84.50
2017-12-22T01:48:10.828Z,83.80
2017-12-22T01:48:46.231Z,88.30
2017-12-22T01:49:21.431Z,89.00
2017-12-22T01:49:56.766Z,84.30
2017-12-22T01:50:32.041Z,84.50
2017-12-22T01:51:07.641Z,84.90
2017-12-22T01:51:43.115Z,80.60
2017-12-22T01:52:18.416Z,84.80
2017-12-22T01:52:53.899Z,87.60
2017-12-22T01:53:29.199Z,82.50
2017-12-22T01:54:04.711Z,85.70
2017-12-22T01:54:40.297Z,88.10
2017-12-22T01:55:15.525Z,91.90
2017-12-22T01:55:51.007Z,89.80
2017-12-22T01:56:26.403Z,81.80
2017-12-22T01:57:01.583Z,91.90
2017-12-22T01:57:36.988Z,92.70
2017-12-22T01:58:12.070Z,86.30
2017-12-22T01:58:47.271Z,81.60
2017-12-22T01:59:22.574Z,89.00
2017-12-22T01:59:57.854Z,83.30
2017-12-22T02:00:33.407Z,83.60
2017-12-22T02:01:08.992Z,87.10
2017-12-22T02:01:44.493Z,92.60
2017-12-22T02:02:19.880Z,90.00
2017-12-22T02:02:55.278Z,86.40
2017-12-22T02:03:30.459Z,90.40
2017-12-22T02:04:05.568Z,89.50
2017-12-22T02:04:40.892Z,87.80
2017-12-22T02:05:16.296Z,89.30
2017-12-22T02:05:51.430Z,84.00
2017-12-22T02:06:26.817Z,81.70
2017-12-22T02:07:02.317Z,88.40
2017-12-22T02:07:37.807Z,98.00
2017-12-22T02:08:13.202Z,93.10
2017-12-22T02:08:48.487Z,92.00
2017-12-22T02:09:23.898Z,87.10
2017-12-22T02:09:59.176Z,98.90
2017-12-22T02:10:34.519Z,97.70
2017-12-22T02:11:10.253Z,93.10
2017-12-22T02:11:45.730Z,102.90
2017-12-22T02:12:21.035Z,102.20
2017-12-22T02:12:56.508Z,101.90
2017-12-22T02:13:31.926Z,100.90
2017-12-22T02:14:07.100Z,100.90
2017-12-22T02:14:42.610Z,96.70
2017-12-22T02:15:17.894Z,100.10
2017-12-22T02:15:53.108Z,98.70
2017-12-22T02:16:28.346Z,103.70
2017-12-22T02:17:03.727Z,108.80
2017-12-22T02:17:39.035Z,102.70
2017-12-22T02:18:14.745Z,101.20
2017-12-22T02:18:49.864Z,111.80
2017-12-22T02:19:25.056Z,104.50
2017-12-22T02:20:00.664Z,102.70
2017-12-22T02:20:35.877Z,100.20
2017-12-22T02:21:11.290Z,104.00
2017-12-22T02:21:46.780Z,102.20
2017-12-22T02:22:22.270Z,100.90
2017-12-22T02:22:57.884Z,100.20
2017-12-22T02:23:33.172Z,96.50
2017-12-22T02:24:08.378Z,101.80
2017-12-22T02:24:43.678Z,100.60
2017-12-22T02:25:19.190Z,93.30
2017-12-22T02:25:54.585Z,99.10
2017-12-22T02:26:30.005Z,100.60
2017-12-22T02:27:05.573Z,95.00
2017-12-22T02:27:40.875Z,101.30
2017-12-22T02:28:16.351Z,104.30
2017-12-22T02:28:51.531Z,102.10
2017-12-22T02:29:26.648Z,100.30
2017-12-22T02:30:02.258Z,101.10
2017-12-22T02:30:37.682Z,103.50
2017-12-22T02:31:13.076Z,106.10
2017-12-22T02:31:48.573Z,105.40
2017-12-22T02:32:24.106Z,106.30
2017-12-22T02:32:59.632Z,103.40
2017-12-22T02:33:35.044Z,104.30
2017-12-22T02:34:11.516Z,111.00
2017-12-22T02:34:46.923Z,123.90
2017-12-22T02:35:22.314Z,125.00
2017-12-22T02:35:57.722Z,114.70
2017-12-22T02:36:33.216Z,107.00
2017-12-22T02:37:08.727Z,110.30
2017-12-22T02:37:44.028Z,111.50
2017-12-22T02:38:19.064Z,114.70
2017-12-22T02:38:54.484Z,113.20
2017-12-22T02:39:30.073Z,113.60
2017-12-22T02:40:05.673Z,106.90
2017-12-22T02:40:41.056Z,105.00
2017-12-22T02:41:16.357Z,107.60
2017-12-22T02:41:51.544Z,109.50
2017-12-22T02:42:26.883Z,112.20
2017-12-22T02:43:02.549Z,116.40
2017-12-22T02:43:37.758Z,119.30
2017-12-22T02:44:13.266Z,118.70
2017-12-22T02:44:48.454Z,128.40
2017-12-22T02:45:23.760Z,121.40
2017-12-22T02:45:58.953Z,125.40
2017-12-22T02:46:34.779Z,135.80
2017-12-22T02:47:10.267Z,130.20
2017-12-22T02:47:45.896Z,126.20
2017-12-22T02:48:21.477Z,119.90
2017-12-22T02:48:56.983Z,122.40
2017-12-22T02:49:32.094Z,125.50
2017-12-22T02:50:07.685Z,116.10
2017-12-22T02:50:42.999Z,111.60
2017-12-22T02:51:18.288Z,114.90
2017-12-22T02:51:53.703Z,109.00
2017-12-22T02:52:29.283Z,116.30
2017-12-22T02:53:04.814Z,113.80
2017-12-22T02:53:39.899Z,111.30
2017-12-22T02:54:15.108Z,123.90
2017-12-22T02:54:50.649Z,116.00
2017-12-22T02:55:26.232Z,120.20
2017-12-22T02:56:01.742Z,119.10
2017-12-22T02:56:37.219Z,114.90
2017-12-22T02:57:12.638Z,119.40
2017-12-22T02:57:48.394Z,116.60
2017-12-22T02:58:23.633Z,119.80
2017-12-22T02:58:58.919Z,118.40
2017-12-22T02:59:34.379Z,122.40
2017-12-22T03:00:09.903Z,125.70
2017-12-22T03:00:45.482Z,131.00
2017-12-22T03:01:20.991Z,123.00
2017-12-22T03:01:56.076Z,116.40
2017-12-22T03:02:31.683Z,111.90
2017-12-22T03:03:06.795Z,126.00
2017-12-22T03:03:42.296Z,136.10
2017-12-22T03:04:18.079Z,134.50
2017-12-22T03:04:53.684Z,133.50
2017-12-22T03:05:28.976Z,125.20
2017-12-22T03:06:04.391Z,127.60
2017-12-22T03:06:39.532Z,126.10
2017-12-22T03:07:14.721Z,122.40
2017-12-22T03:07:50.154Z,128.70
2017-12-22T03:08:25.338Z,136.90
2017-12-22T03:09:00.642Z,139.20
2017-12-22T03:09:35.825Z,132.10
2017-12-22T03:10:11.026Z,128.80
2017-12-22T03:10:46.811Z,134.20
2017-12-22T03:11:22.023Z,140.00
2017-12-22T03:11:57.236Z,137.50
2017-12-22T03:12:32.623Z,143.70
2017-12-22T03:13:08.057Z,134.10
2017-12-22T03:13:43.341Z,135.50
2017-12-22T03:14:18.757Z,142.60
2017-12-22T03:14:54.043Z,135.00
2017-12-22T03:15:29.369Z,135.00
2017-12-22T03:16:04.654Z,144.80
2017-12-22T03:16:39.865Z,143.40
2017-12-22T03:17:15.080Z,141.30
2017-12-22T03:17:50.388Z,132.20
2017-12-22T03:18:25.692Z,135.50
2017-12-22T03:19:01.175Z,126.60
2017-12-22T03:19:36.486Z,123.40
2017-12-22T03:20:11.784Z,133.00
2017-12-22T03:20:47.287Z,128.90
2017-12-22T03:21:22.379Z,122.60
2017-12-22T03:21:58.174Z,126.30
2017-12-22T03:22:33.653Z,131.80
2017-12-22T03:23:09.083Z,132.30
2017-12-22T03:23:44.489Z,142.60
2017-12-22T03:24:19.771Z,147.00
2017-12-22T03:24:55.583Z,140.00
2017-12-22T03:25:31.359Z,145.20
2017-12-22T03:26:06.767Z,147.00
2017-12-22T03:26:42.151Z,133.90
2017-12-22T03:27:17.466Z,136.70
2017-12-22T03:27:52.755Z,139.30
2017-12-22T03:28:28.423Z,141.50
2017-12-22T03:29:04.040Z,153.00
2017-12-22T03:29:39.626Z,150.30
2017-12-22T03:30:15.335Z,145.00
2017-12-22T03:30:50.520Z,152.50
2017-12-22T03:31:25.827Z,154.10
2017-12-22T03:32:01.023Z,148.00
2017-12-22T03:32:36.433Z,147.00
2017-12-22T03:33:11.841Z,142.80
2017-12-22T03:33:47.240Z,148.30
2017-12-22T03:34:22.658Z,138.80
2017-12-22T03:34:57.657Z,145.70
2017-12-22T03:35:33.272Z,149.10
2017-12-22T03:36:08.559Z,145.60
2017-12-22T03:36:43.969Z,150.00
2017-12-22T03:37:19.466Z,154.70
2017-12-22T03:37:55.162Z,150.00
2017-12-22T03:38:30.469Z,156.30
2017-12-22T03:39:05.875Z,154.50
2017-12-22T03:39:41.495Z,143.50
2017-12-22T03:40:16.780Z,145.90
2017-12-22T03:40:52.092Z,162.20
2017-12-22T03:41:27.286Z,162.40
2017-12-22T03:42:02.495Z,168.80
2017-12-22T03:42:37.773Z,161.30
2017-12-22T03:43:13.306Z,157.20
2017-12-22T03:43:48.784Z,148.40
2017-12-22T03:44:24.190Z,149.60
2017-12-22T03:44:59.795Z,154.40
2017-12-22T03:45:35.087Z,139.10
2017-12-22T03:46:10.591Z,137.30
2017-12-22T03:46:46.070Z,141.90
2017-12-22T03:47:21.678Z,143.10
2017-12-22T03:47:57.057Z,158.70
2017-12-22T03:48:32.291Z,145.70
2017-12-22T03:49:07.473Z,148.00
2017-12-22T03:49:42.585Z,150.50
2017-12-22T03:50:17.761Z,149.20
2017-12-22T03:50:52.968Z,144.00
2017-12-22T03:51:28.378Z,153.30
2017-12-22T03:52:03.562Z,155.50
2017-12-22T03:52:38.884Z,149.90
2017-12-22T03:53:14.162Z,142.60
2017-12-22T03:53:49.501Z,147.40
2017-12-22T03:54:24.885Z,145.90
2017-12-22T03:55:00.195Z,148.00
2017-12-22T03:55:35.385Z,148.30
2017-12-22T03:56:10.814Z,143.50
2017-12-22T03:56:46.037Z,146.40
2017-12-22T03:57:21.357Z,145.40
2017-12-22T03:57:56.548Z,145.60
2017-12-22T03:58:31.859Z,151.70
2017-12-22T03:59:07.163Z,152.40
2017-12-22T03:59:42.555Z,148.70
2017-12-22T04:00:17.672Z,138.60
2017-12-22T04:00:53.156Z,136.30
2017-12-22T04:01:28.465Z,130.90
2017-12-22T04:02:03.997Z,140.50
2017-12-22T04:02:39.567Z,136.10
2017-12-22T04:03:14.774Z,137.20
2017-12-22T04:03:50.192Z,129.70
2017-12-22T04:04:25.519Z,130.00
2017-12-22T04:05:01.107Z,121.10
2017-12-22T04:05:36.514Z,120.40
2017-12-22T04:06:11.809Z,123.80
2017-12-22T04:06:46.816Z,122.10
2017-12-22T04:07:22.335Z,121.50
2017-12-22T04:07:57.652Z,129.70
2017-12-22T04:08:32.787Z,136.30
2017-12-22T04:09:08.079Z,137.80
2017-12-22T04:09:43.582Z,128.50
2017-12-22T04:10:18.876Z,134.70
2017-12-22T04:10:54.087Z,130.10
2017-12-22T04:11:29.575Z,131.60
2017-12-22T04:12:04.981Z,138.00
2017-12-22T04:12:40.271Z,138.70
2017-12-22T04:13:15.619Z,141.40
2017-12-22T04:13:51.061Z,132.30
2017-12-22T04:14:26.151Z,136.00
2017-12-22T04:15:01.356Z,137.00
2017-12-22T04:15:36.736Z,138.00
2017-12-22T04:16:11.851Z,130.70
2017-12-22T04:16:47.123Z,127.10
2017-12-22T04:17:22.429Z,134.40
2017-12-22T04:17:57.809Z,134.40
2017-12-22T04:18:33.053Z,133.00
2017-12-22T04:19:08.262Z,143.70
2017-12-22T04:19:43.443Z,136.30
2017-12-22T04:20:18.749Z,135.80
2017-12-22T04:20:53.961Z,137.40
2017-12-22T04:21:29.379Z,138.00
2017-12-22T04:22:04.970Z,128.70
2017-12-22T04:22:40.474Z,127.00
2017-12-22T04:23:15.554Z,128.90
2017-12-22T04:23:50.802Z,124.20
2017-12-22T04:24:26.092Z,135.30
2017-12-22T04:25:01.392Z,133.60
2017-12-22T04:25:36.814Z,125.20
2017-12-22T04:26:12.317Z,120.40
2017-12-22T04:26:47.836Z,124.40
2017-12-22T04:27:23.311Z,131.10
2017-12-22T04:27:58.622Z,135.20
2017-12-22T04:28:33.911Z,132.80
2017-12-22T04:29:09.051Z,128.30
2017-12-22T04:29:44.445Z,127.00
2017-12-22T04:30:19.958Z,133.00
2017-12-22T04:30:55.279Z,134.90
2017-12-22T04:31:30.763Z,137.70
2017-12-22T04:32:05.998Z,135.20
2017-12-22T04:32:41.380Z,141.70
2017-12-22T04:33:16.890Z,139.90
2017-12-22T04:33:52.105Z,129.30
2017-12-22T04:34:27.619Z,124.70
2017-12-22T04:35:03.118Z,125.10
2017-12-22T04:35:38.933Z,117.30
2017-12-22T04:36:14.136Z,118.00
2017-12-22T04:36:49.527Z,130.80
2017-12-22T04:37:24.838Z,130.90
2017-12-22T04:38:00.122Z,123.40
2017-12-22T04:38:35.631Z,118.30
2017-12-22T04:39:10.947Z,124.60
2017-12-22T04:39:46.662Z,129.30
2017-12-22T04:40:21.750Z,124.30
2017-12-22T04:40:56.871Z,126.30
2017-12-22T04:41:32.187Z,130.70
2017-12-22T04:42:07.484Z,131.90
2017-12-22T04:42:42.501Z,139.90
2017-12-22T04:43:17.888Z,136.60
2017-12-22T04:43:53.026Z,134.60
2017-12-22T04:44:28.512Z,141.50
2017-12-22T04:45:04.225Z,136.80
2017-12-22T04:45:39.507Z,143.10
2017-12-22T04:46:14.916Z,142.70
2017-12-22T04:46:50.215Z,131.20
2017-12-22T04:47:25.629Z,131.60
2017-12-22T04:48:00.833Z,130.50
2017-12-22T04:48:36.226Z,128.30
2017-12-22T04:49:11.568Z,133.30
2017-12-22T04:49:47.059Z,137.90
2017-12-22T04:50:22.182Z,128.80
2017-12-22T04:50:57.396Z,129.30
2017-12-22T04:51:32.584Z,124.40
2017-12-22T04:52:08.273Z,124.80
2017-12-22T04:52:43.483Z,118.60
2017-12-22T04:53:19.005Z,125.00
2017-12-22T04:53:54.207Z,125.40
2017-12-22T04:54:29.251Z,135.10
2017-12-22T04:55:04.746Z,129.60
2017-12-22T04:55:40.264Z,137.20
2017-12-22T04:56:15.849Z,138.30
2017-12-22T04:56:51.062Z,125.00
2017-12-22T04:57:26.450Z,135.10
2017-12-22T04:58:01.661Z,135.40
2017-12-22T04:58:37.084Z,131.10
2017-12-22T04:59:12.692Z,139.80
2017-12-22T04:59:48.001Z,139.10
2017-12-22T05:00:23.386Z,145.30
2017-12-22T05:00:58.499Z,133.00
2017-12-22T05:01:34.045Z,141.00
2017-12-22T05:02:09.311Z,143.50
2017-12-22T05:02:44.696Z,147.80
2017-12-22T05:03:19.914Z,141.80
2017-12-22T05:03:55.138Z,146.20
2017-12-22T05:04:30.441Z,132.80
2017-12-22T05:05:05.949Z,121.90
2017-12-22T05:05:41.131Z,120.30
2017-12-22T05:06:16.547Z,137.90
2017-12-22T05:06:52.032Z,131.90
2017-12-22T05:07:27.546Z,133.00
2017-12-22T05:08:02.851Z,144.70
2017-12-22T05:08:38.057Z,133.80
2017-12-22T05:09:13.663Z,131.30
2017-12-22T05:09:49.168Z,139.10
2017-12-22T05:10:24.476Z,135.30
2017-12-22T05:10:59.771Z,127.50
2017-12-22T05:11:35.179Z,136.10
2017-12-22T05:12:10.466Z,145.10
2017-12-22T05:12:45.982Z,136.40
2017-12-22T05:13:21.173Z,140.40
2017-12-22T05:13:56.390Z,143.30
2017-12-22T05:14:31.599Z,142.20
2017-12-22T05:15:06.616Z,130.60
2017-12-22T05:15:41.730Z,130.80
2017-12-22T05:16:17.122Z,134.50
2017-12-22T05:16:52.434Z,140.70
2017-12-22T05:17:27.820Z,150.90
2017-12-22T05:18:03.030Z,138.40
2017-12-22T05:18:38.346Z,128.70
2017-12-22T05:19:13.762Z,132.20
2017-12-22T05:19:48.970Z,140.80
2017-12-22T05:20:23.990Z,145.90
2017-12-22T05:20:59.177Z,140.20
2017-12-22T05:21:34.703Z,148.20
2017-12-22T05:22:09.921Z,143.30
2017-12-22T05:22:45.612Z,149.20
2017-12-22T05:23:21.023Z,157.70
2017-12-22T05:23:56.307Z,145.10
2017-12-22T05:24:31.658Z,141.20
2017-12-22T05:25:07.046Z,153.30
2017-12-22T05:25:42.367Z,151.70
2017-12-22T05:26:17.947Z,133.30
2017-12-22T05:26:53.075Z,135.00
2017-12-22T05:27:28.797Z,148.20
2017-12-22T05:28:04.387Z,153.80
2017-12-22T05:28:39.810Z,135.20
2017-12-22T05:29:15.020Z,129.90
2017-12-22T05:29:50.362Z,134.50
2017-12-22T05:30:25.957Z,138.10
2017-12-22T05:31:01.176Z,142.80
2017-12-22T05:31:36.497Z,150.80
2017-12-22T05:32:11.617Z,153.70
2017-12-22T05:32:46.855Z,154.50
2017-12-22T05:33:22.250Z,154.40
2017-12-22T05:33:57.879Z,149.10
2017-12-22T05:34:33.901Z,144.20
2017-12-22T05:35:09.247Z,151.00
2017-12-22T05:35:44.747Z,144.20
2017-12-22T05:36:19.966Z,144.20
2017-12-22T05:36:55.286Z,139.40
2017-12-22T05:37:31.011Z,135.30
2017-12-22T05:38:06.337Z,145.50
2017-12-22T05:38:41.748Z,134.70
2017-12-22T05:39:17.255Z,139.70
2017-12-22T05:39:52.476Z,143.50
2017-12-22T05:40:27.577Z,144.00
2017-12-22T05:41:02.991Z,141.90
2017-12-22T05:41:38.318Z,144.60
2017-12-22T05:42:13.632Z,150.50
2017-12-22T05:42:49.244Z,138.50
2017-12-22T05:43:24.546Z,138.90
2017-12-22T05:44:00.068Z,141.60
2017-12-22T05:44:35.397Z,149.40
2017-12-22T05:45:10.792Z,146.20
2017-12-22T05:45:46.213Z,143.00
2017-12-22T05:46:21.692Z,148.50
2017-12-22T05:46:56.998Z,165.40
2017-12-22T05:47:32.212Z,146.80
2017-12-22T05:48:07.655Z,148.40
2017-12-22T05:48:43.064Z,142.80
2017-12-22T05:49:18.394Z,143.40
2017-12-22T05:49:53.657Z,144.30
2017-12-22T05:50:28.950Z,149.10
2017-12-22T05:51:04.365Z,153.00
2017-12-22T05:51:39.548Z,156.80
2017-12-22T05:52:15.078Z,158.80
2017-12-22T05:52:50.520Z,162.60
2017-12-22T05:53:26.146Z,151.70
2017-12-22T05:54:01.538Z,159.70
2017-12-22T05:54:36.856Z,175.60
2017-12-22T05:55:12.220Z,166.60
2017-12-22T05:55:47.527Z,152.00
2017-12-22T05:56:22.893Z,161.80
2017-12-22T05:56:58.263Z,157.20
2017-12-22T05:57:33.501Z,143.10
2017-12-22T05:58:08.995Z,151.40
2017-12-22T05:58:44.417Z,154.00
2017-12-22T05:59:19.747Z,149.50
2017-12-22T05:59:55.309Z,131.10
2017-12-22T06:00:30.630Z,124.90
2017-12-22T06:01:05.719Z,129.80
2017-12-22T06:01:41.532Z,140.80
2017-12-22T06:02:17.031Z,150.00
2017-12-22T06:02:52.157Z,145.60
2017-12-22T06:03:27.363Z,135.00
2017-12-22T06:04:02.584Z,135.90
2017-12-22T06:04:38.587Z,140.60
2017-12-22T06:05:13.927Z,151.20
2017-12-22T06:05:49.054Z,148.60
2017-12-22T06:06:24.453Z,144.40
2017-12-22T06:06:59.782Z,155.00
2017-12-22T06:07:34.992Z,159.70
2017-12-22T06:08:10.503Z,160.60
2017-12-22T06:08:45.805Z,147.70
2017-12-22T06:09:20.924Z,145.10
2017-12-22T06:09:56.532Z,137.70
2017-12-22T06:10:31.745Z,140.50
2017-12-22T06:11:06.932Z,150.00
2017-12-22T06:11:42.537Z,142.40
2017-12-22T06:12:17.742Z,134.80
2017-12-22T06:12:53.032Z,145.50
2017-12-22T06:13:28.462Z,148.40
2017-12-22T06:14:03.848Z,144.80
2017-12-22T06:14:39.358Z,133.90
2017-12-22T06:15:14.666Z,126.60
2017-12-22T06:15:50.073Z,138.10
2017-12-22T06:16:25.646Z,147.40
2017-12-22T06:17:01.259Z,144.00
2017-12-22T06:17:36.288Z,138.50
2017-12-22T06:18:11.769Z,149.30
2017-12-22T06:18:46.975Z,142.50
2017-12-22T06:19:22.264Z,138.60
2017-12-22T06:19:57.501Z,135.90
2017-12-22T06:20:32.889Z,132.10
2017-12-22T06:21:08.492Z,139.20
2017-12-22T06:21:43.778Z,139.30
2017-12-22T06:22:19.007Z,141.80
2017-12-22T06:22:54.785Z,136.90
2017-12-22T06:23:30.212Z,138.10
2017-12-22T06:24:05.414Z,152.40
2017-12-22T06:24:40.913Z,152.00
2017-12-22T06:25:16.353Z,151.60
2017-12-22T06:25:54.057Z,141.10
2017-12-22T06:26:29.376Z,146.40
2017-12-22T06:27:04.641Z,143.60
2017-12-22T06:27:39.949Z,138.80
2017-12-22T06:28:15.065Z,143.90
2017-12-22T06:28:50.359Z,148.20
2017-12-22T06:29:25.774Z,149.30
2017-12-22T06:30:01.062Z,151.60
2017-12-22T06:30:36.603Z,152.90
2017-12-22T06:31:11.984Z,161.40
2017-12-22T06:31:47.192Z,169.10
2017-12-22T06:32:22.373Z,153.40
2017-12-22T06:32:57.698Z,144.80
2017-12-22T06:33:33.116Z,155.50
2017-12-22T06:34:08.508Z,144.00
2017-12-22T06:34:43.723Z,126.70
2017-12-22T06:35:19.322Z,124.20
2017-12-22T06:35:54.633Z,142.40
2017-12-22T06:36:30.121Z,149.60
2017-12-22T06:37:05.336Z,147.10
2017-12-22T06:37:40.523Z,159.60
2017-12-22T06:38:15.830Z,164.50
2017-12-22T06:38:51.310Z,162.40
2017-12-22T06:39:26.615Z,155.30
2017-12-22T06:40:02.033Z,160.40
2017-12-22T06:40:37.553Z,167.30
2017-12-22T06:41:13.091Z,170.20
2017-12-22T06:41:48.260Z,168.60
2017-12-22T06:42:23.375Z,166.40
2017-12-22T06:42:58.761Z,169.50
2017-12-22T06:43:33.870Z,168.10
2017-12-22T06:44:09.150Z,175.60
2017-12-22T06:44:44.460Z,176.90
2017-12-22T06:45:19.800Z,171.10
2017-12-22T06:45:55.094Z,173.50
2017-12-22T06:46:30.502Z,181.20
2017-12-22T06:47:05.784Z,180.20
2017-12-22T06:47:40.996Z,193.80
2017-12-22T06:48:16.286Z,199.20
2017-12-22T06:48:51.691Z,195.50
2017-12-22T06:49:26.873Z,184.90
2017-12-22T06:50:02.095Z,188.60
2017-12-22T06:50:38.129Z,180.00
2017-12-22T06:51:13.314Z,180.00
2017-12-22T06:51:48.520Z,176.00
2017-12-22T06:52:23.803Z,161.20
2017-12-22T06:52:59.217Z,177.20
2017-12-22T06:53:34.403Z,180.50
2017-12-22T06:54:10.011Z,181.40
2017-12-22T06:54:45.505Z,184.60
2017-12-22T06:55:20.810Z,184.00
2017-12-22T06:55:56.011Z,186.50
2017-12-22T06:56:31.225Z,183.30
2017-12-22T06:57:06.443Z,188.10
2017-12-22T06:57:41.628Z,182.80
2017-12-22T06:58:16.846Z,165.00
2017-12-22T06:58:52.021Z,188.10
2017-12-22T06:59:27.741Z,189.80
2017-12-22T07:00:03.321Z,189.40
2017-12-22T07:00:39.446Z,185.10
2017-12-22T07:01:14.551Z,176.90
2017-12-22T07:01:50.467Z,202.90
2017-12-22T07:02:25.782Z,214.00
2017-12-22T07:03:01.060Z,218.20
2017-12-22T07:03:36.474Z,214.30
2017-12-22T07:04:11.849Z,220.50
2017-12-22T07:04:47.255Z,198.20
2017-12-22T07:05:22.745Z,181.00
2017-12-22T07:05:57.983Z,223.40
2017-12-22T07:06:33.271Z,219.90
2017-12-22T07:07:08.691Z,233.20
2017-12-22T07:07:46.001Z,220.00
2017-12-22T07:08:21.482Z,188.10
2017-12-22T07:08:56.991Z,186.30
2017-12-22T07:09:32.185Z,180.70
2017-12-22T07:10:07.494Z,199.70
2017-12-22T07:10:42.805Z,197.00
2017-12-22T07:11:18.605Z,193.10
2017-12-22T07:11:53.897Z,205.30
2017-12-22T07:12:29.598Z,212.90
2017-12-22T07:13:04.815Z,216.10
2017-12-22T07:13:41.204Z,211.20
2017-12-22T07:14:16.516Z,208.20
2017-12-22T07:14:51.912Z,212.50
2017-12-22T07:15:27.123Z,201.20
2017-12-22T07:16:02.733Z,202.30
2017-12-22T07:16:38.049Z,194.30
2017-12-22T07:17:13.835Z,203.60
2017-12-22T07:17:49.235Z,216.80
2017-12-22T07:18:24.547Z,212.00
2017-12-22T07:19:00.033Z,242.30
2017-12-22T07:19:35.543Z,243.90
2017-12-22T07:20:11.326Z,240.20
2017-12-22T07:20:47.056Z,236.20
2017-12-22T07:21:22.150Z,246.60
2017-12-22T07:21:57.364Z,252.00
2017-12-22T07:22:32.570Z,222.80
2017-12-22T07:23:07.786Z,236.20
2017-12-22T07:23:43.393Z,282.80
2017-12-22T07:24:18.484Z,260.40
2017-12-22T07:24:53.812Z,290.30
2017-12-22T07:25:29.383Z,254.90